sensor_id;sensor_type;location;lat;lon;timestamp;P1;P2;P0
62631;PMS5003;48703;51.248;-0.546;2024-03-23T00:55:29;4.13;3.81;
62631;PMS5003;48703;51.248;-0.546;2024-03-23T00:58:30;5.00;3.77;
62631;PMS5003;48703;51.248;-0.546;2024-03-23T01:01:32;2.90;2.49;
62631;PMS5003;48703;51.248;-0.546;2024-03-23T01:04:34;3.29;2.74;
62631;PMS5003;48703;51.248;-0.546;2024-03-23T01:07:35;4.01;2.76;
62631;PMS5003;48703;51.248;-0.546;2024-03-23T01:10:37;4.47;3.66;
62631;PMS5003;48703;51.248;-0.546;2024-03-23T01:13:39;3.11;2.93;
62631;PMS5003;48703;51.248;-0.546;2024-03-23T01:16:41;2.63;2.33;
62631;PMS5003;48703;51.248;-0.546;2024-03-23T01:19:43;4.89;3.93;
62631;PMS5003;48703;51.248;-0.546;2024-03-23T01:22:44;2.96;2.57;
62631;PMS5003;48703;51.248;-0.546;2024-03-23T01:25:51;3.89;2.04;
62631;PMS5003;48703;51.248;-0.546;2024-03-23T01:28:48;3.76;2.94;
62631;PMS5003;48703;51.248;-0.546;2024-03-23T01:31:49;2.04;1.70;
62631;PMS5003;48703;51.248;-0.546;2024-03-23T01:34:51;1.27;1.27;
62631;PMS5003;48703;51.248;-0.546;2024-03-23T01:37:53;2.46;2.03;
62631;PMS5003;48703;51.248;-0.546;2024-03-23T01:40:56;3.19;2.54;
62631;PMS5003;48703;51.248;-0.546;2024-03-23T01:43:57;2.77;2.61;
62631;PMS5003;48703;51.248;-0.546;2024-03-23T01:46:58;4.29;2.50;
62631;PMS5003;48703;51.248;-0.546;2024-03-23T01:50:00;1.87;1.60;
62631;PMS5003;48703;51.248;-0.546;2024-03-23T01:53:02;2.30;2.13;
62631;PMS5003;48703;51.248;-0.546;2024-03-23T01:56:04;2.74;1.39;
62631;PMS5003;48703;51.248;-0.546;2024-03-23T01:59:05;1.89;1.80;
62631;PMS5003;48703;51.248;-0.546;2024-03-23T02:02:07;2.26;1.74;
62631;PMS5003;48703;51.248;-0.546;2024-03-23T02:05:09;2.40;2.10;
62631;PMS5003;48703;51.248;-0.546;2024-03-23T02:08:11;2.39;1.70;
62631;PMS5003;48703;51.248;-0.546;2024-03-23T02:11:13;1.67;1.23;
62631;PMS5003;48703;51.248;-0.546;2024-03-23T02:14:14;2.44;1.63;
62631;PMS5003;48703;51.248;-0.546;2024-03-23T02:17:16;3.61;2.10;
62631;PMS5003;48703;51.248;-0.546;2024-03-23T02:20:18;3.37;2.34;
62631;PMS5003;48703;51.248;-0.546;2024-03-23T02:23:20;1.53;1.53;
62631;PMS5003;48703;51.248;-0.546;2024-03-23T02:26:22;2.30;1.74;
62631;PMS5003;48703;51.248;-0.546;2024-03-23T02:29:24;2.09;1.66;
62631;PMS5003;48703;51.248;-0.546;2024-03-23T02:32:25;1.66;1.66;
62631;PMS5003;48703;51.248;-0.546;2024-03-23T02:35:27;1.21;0.97;
62631;PMS5003;48703;51.248;-0.546;2024-03-23T02:38:29;2.83;2.83;
62631;PMS5003;48703;51.248;-0.546;2024-03-23T02:41:31;1.57;1.30;
62631;PMS5003;48703;51.248;-0.546;2024-03-23T02:44:33;1.34;1.13;
62631;PMS5003;48703;51.248;-0.546;2024-03-23T02:47:35;1.84;1.43;
62631;PMS5003;48703;51.248;-0.546;2024-03-23T02:50:36;1.93;1.24;
62631;PMS5003;48703;51.248;-0.546;2024-03-23T02:53:38;2.27;1.49;
62631;PMS5003;48703;51.248;-0.546;2024-03-23T02:56:40;1.86;1.21;
62631;PMS5003;48703;51.248;-0.546;2024-03-23T02:59:42;2.11;1.81;
62631;PMS5003;48703;51.248;-0.546;2024-03-23T03:02:44;1.96;1.53;
62631;PMS5003;48703;51.248;-0.546;2024-03-23T03:05:46;1.96;1.61;
62631;PMS5003;48703;51.248;-0.546;2024-03-23T03:08:47;2.20;1.99;
62631;PMS5003;48703;51.248;-0.546;2024-03-23T03:11:49;1.99;1.13;
62631;PMS5003;48703;51.248;-0.546;2024-03-23T03:14:51;3.23;2.20;
62631;PMS5003;48703;51.248;-0.546;2024-03-23T03:17:53;1.13;0.81;
62631;PMS5003;48703;51.248;-0.546;2024-03-23T03:20:55;2.61;1.59;
62631;PMS5003;48703;51.248;-0.546;2024-03-23T03:23:56;2.69;1.97;
62631;PMS5003;48703;51.248;-0.546;2024-03-23T03:26:58;2.67;1.73;
62631;PMS5003;48703;51.248;-0.546;2024-03-23T03:30:00;2.07;1.46;
62631;PMS5003;48703;51.248;-0.546;2024-03-23T03:33:02;2.60;2.11;
62631;PMS5003;48703;51.248;-0.546;2024-03-23T03:36:04;2.39;1.16;
62631;PMS5003;48703;51.248;-0.546;2024-03-23T03:39:05;1.17;1.16;
62631;PMS5003;48703;51.248;-0.546;2024-03-23T03:42:07;1.96;1.81;
62631;PMS5003;48703;51.248;-0.546;2024-03-23T03:45:09;2.13;1.50;
62631;PMS5003;48703;51.248;-0.546;2024-03-23T03:48:11;2.47;2.09;
62631;PMS5003;48703;51.248;-0.546;2024-03-23T03:51:13;2.66;1.94;
62631;PMS5003;48703;51.248;-0.546;2024-03-23T03:54:15;3.36;2.50;
62631;PMS5003;48703;51.248;-0.546;2024-03-23T03:57:16;3.66;1.74;
62631;PMS5003;48703;51.248;-0.546;2024-03-23T04:00:18;1.23;0.83;
62631;PMS5003;48703;51.248;-0.546;2024-03-23T04:03:20;2.96;2.39;
62631;PMS5003;48703;51.248;-0.546;2024-03-23T04:06:21;2.14;1.97;
62631;PMS5003;48703;51.248;-0.546;2024-03-23T04:09:23;2.66;2.06;
62631;PMS5003;48703;51.248;-0.546;2024-03-23T04:12:24;3.30;2.11;
62631;PMS5003;48703;51.248;-0.546;2024-03-23T04:15:26;1.87;1.21;
62631;PMS5003;48703;51.248;-0.546;2024-03-23T04:18:28;2.53;2.27;
62631;PMS5003;48703;51.248;-0.546;2024-03-23T04:21:30;1.26;1.26;
62631;PMS5003;48703;51.248;-0.546;2024-03-23T04:24:32;3.39;1.81;
62631;PMS5003;48703;51.248;-0.546;2024-03-23T04:27:34;4.14;2.51;
62631;PMS5003;48703;51.248;-0.546;2024-03-23T04:30:35;3.14;1.70;
62631;PMS5003;48703;51.248;-0.546;2024-03-23T04:33:37;4.01;2.97;
62631;PMS5003;48703;51.248;-0.546;2024-03-23T04:36:39;2.53;1.93;
62631;PMS5003;48703;51.248;-0.546;2024-03-23T04:39:41;2.57;2.10;
62631;PMS5003;48703;51.248;-0.546;2024-03-23T04:42:43;2.65;2.32;
62631;PMS5003;48703;51.248;-0.546;2024-03-23T04:45:44;2.53;1.97;
62631;PMS5003;48703;51.248;-0.546;2024-03-23T04:48:46;2.40;1.89;
62631;PMS5003;48703;51.248;-0.546;2024-03-23T04:51:48;3.23;2.84;
62631;PMS5003;48703;51.248;-0.546;2024-03-23T04:54:50;3.34;2.66;
62631;PMS5003;48703;51.248;-0.546;2024-03-23T04:57:51;3.90;3.58;
62631;PMS5003;48703;51.248;-0.546;2024-03-23T05:00:53;3.46;2.21;
62631;PMS5003;48703;51.248;-0.546;2024-03-23T05:03:55;1.94;1.73;
62631;PMS5003;48703;51.248;-0.546;2024-03-23T05:06:56;2.34;2.19;
62631;PMS5003;48703;51.248;-0.546;2024-03-23T05:09:58;3.81;2.97;
62631;PMS5003;48703;51.248;-0.546;2024-03-23T05:13:00;3.34;3.34;
62631;PMS5003;48703;51.248;-0.546;2024-03-23T05:16:02;3.20;2.27;
62631;PMS5003;48703;51.248;-0.546;2024-03-23T05:19:04;1.97;1.41;
62631;PMS5003;48703;51.248;-0.546;2024-03-23T05:22:05;3.83;3.00;
62631;PMS5003;48703;51.248;-0.546;2024-03-23T05:25:07;3.17;2.21;
62631;PMS5003;48703;51.248;-0.546;2024-03-23T05:28:09;2.60;1.24;
62631;PMS5003;48703;51.248;-0.546;2024-03-23T05:31:11;3.44;2.36;
62631;PMS5003;48703;51.248;-0.546;2024-03-23T05:34:12;3.41;2.64;
62631;PMS5003;48703;51.248;-0.546;2024-03-23T05:37:14;3.41;2.90;
62631;PMS5003;48703;51.248;-0.546;2024-03-23T05:40:16;3.33;2.17;
62631;PMS5003;48703;51.248;-0.546;2024-03-23T05:43:18;2.34;2.34;
62631;PMS5003;48703;51.248;-0.546;2024-03-23T05:46:20;1.57;1.57;
62631;PMS5003;48703;51.248;-0.546;2024-03-23T05:49:22;3.41;2.71;
62631;PMS5003;48703;51.248;-0.546;2024-03-23T05:52:24;2.66;1.44;
62631;PMS5003;48703;51.248;-0.546;2024-03-23T05:55:25;4.70;2.59;
62631;PMS5003;48703;51.248;-0.546;2024-03-23T05:58:27;2.63;2.23;
62631;PMS5003;48703;51.248;-0.546;2024-03-23T06:01:29;3.70;2.96;
62631;PMS5003;48703;51.248;-0.546;2024-03-23T06:04:31;3.16;1.53;
62631;PMS5003;48703;51.248;-0.546;2024-03-23T06:07:32;2.07;1.70;
62631;PMS5003;48703;51.248;-0.546;2024-03-23T06:10:34;3.67;3.11;
62631;PMS5003;48703;51.248;-0.546;2024-03-23T06:13:36;4.63;2.90;
62631;PMS5003;48703;51.248;-0.546;2024-03-23T06:16:38;2.56;1.31;
62631;PMS5003;48703;51.248;-0.546;2024-03-23T06:19:40;4.09;2.59;
62631;PMS5003;48703;51.248;-0.546;2024-03-23T06:22:41;3.13;2.40;
62631;PMS5003;48703;51.248;-0.546;2024-03-23T06:25:43;3.93;3.29;
62631;PMS5003;48703;51.248;-0.546;2024-03-23T06:28:45;5.40;3.69;
62631;PMS5003;48703;51.248;-0.546;2024-03-23T06:31:52;3.09;2.97;
62631;PMS5003;48703;51.248;-0.546;2024-03-23T06:34:48;4.53;3.31;
62631;PMS5003;48703;51.248;-0.546;2024-03-23T06:37:50;4.43;3.61;
62631;PMS5003;48703;51.248;-0.546;2024-03-23T06:40:52;6.17;4.61;
62631;PMS5003;48703;51.248;-0.546;2024-03-23T06:43:54;5.86;4.43;
62631;PMS5003;48703;51.248;-0.546;2024-03-23T06:46:55;10.09;7.50;
62631;PMS5003;48703;51.248;-0.546;2024-03-23T06:49:58;4.37;3.87;
62631;PMS5003;48703;51.248;-0.546;2024-03-23T06:52:59;3.14;3.11;
62631;PMS5003;48703;51.248;-0.546;2024-03-23T06:56:01;3.90;3.21;
62631;PMS5003;48703;51.248;-0.546;2024-03-23T06:59:03;3.63;2.69;
62631;PMS5003;48703;51.248;-0.546;2024-03-23T07:02:05;5.19;3.53;
62631;PMS5003;48703;51.248;-0.546;2024-03-23T07:05:07;2.61;1.81;
62631;PMS5003;48703;51.248;-0.546;2024-03-23T07:08:08;3.96;2.63;
62631;PMS5003;48703;51.248;-0.546;2024-03-23T07:11:09;3.80;3.80;
62631;PMS5003;48703;51.248;-0.546;2024-03-23T07:14:11;4.50;2.79;
62631;PMS5003;48703;51.248;-0.546;2024-03-23T07:17:13;3.11;2.23;
62631;PMS5003;48703;51.248;-0.546;2024-03-23T07:20:14;5.00;4.41;
62631;PMS5003;48703;51.248;-0.546;2024-03-23T07:23:16;3.00;2.09;
62631;PMS5003;48703;51.248;-0.546;2024-03-23T07:26:18;3.01;1.81;
62631;PMS5003;48703;51.248;-0.546;2024-03-23T07:29:20;3.79;3.23;
62631;PMS5003;48703;51.248;-0.546;2024-03-23T07:32:21;3.34;2.39;
62631;PMS5003;48703;51.248;-0.546;2024-03-23T07:35:23;3.87;3.77;
62631;PMS5003;48703;51.248;-0.546;2024-03-23T07:38:26;2.77;2.47;
62631;PMS5003;48703;51.248;-0.546;2024-03-23T07:41:26;2.53;1.73;
62631;PMS5003;48703;51.248;-0.546;2024-03-23T07:44:28;2.89;2.29;
62631;PMS5003;48703;51.248;-0.546;2024-03-23T07:47:30;4.60;3.36;
62631;PMS5003;48703;51.248;-0.546;2024-03-23T07:50:32;4.16;3.09;
62631;PMS5003;48703;51.248;-0.546;2024-03-23T07:53:34;5.01;3.39;
62631;PMS5003;48703;51.248;-0.546;2024-03-23T07:56:35;3.61;3.39;
62631;PMS5003;48703;51.248;-0.546;2024-03-23T07:59:37;3.64;3.04;
62631;PMS5003;48703;51.248;-0.546;2024-03-23T08:02:38;2.84;2.41;
62631;PMS5003;48703;51.248;-0.546;2024-03-23T08:05:40;3.64;3.56;
62631;PMS5003;48703;51.248;-0.546;2024-03-23T08:08:43;3.73;3.24;
62631;PMS5003;48703;51.248;-0.546;2024-03-23T08:11:43;3.67;2.70;
62631;PMS5003;48703;51.248;-0.546;2024-03-23T08:14:45;3.74;3.00;
62631;PMS5003;48703;51.248;-0.546;2024-03-23T08:17:47;3.78;3.13;
62631;PMS5003;48703;51.248;-0.546;2024-03-23T08:20:54;3.09;2.83;
62631;PMS5003;48703;51.248;-0.546;2024-03-23T08:23:50;1.53;1.29;
62631;PMS5003;48703;51.248;-0.546;2024-03-23T08:26:54;2.60;2.00;
62631;PMS5003;48703;51.248;-0.546;2024-03-23T08:29:54;4.87;2.44;
62631;PMS5003;48703;51.248;-0.546;2024-03-23T08:32:56;2.49;2.14;
62631;PMS5003;48703;51.248;-0.546;2024-03-23T08:35:58;3.30;2.17;
62631;PMS5003;48703;51.248;-0.546;2024-03-23T08:38:59;3.63;1.84;
62631;PMS5003;48703;51.248;-0.546;2024-03-23T08:42:01;4.49;3.57;
62631;PMS5003;48703;51.248;-0.546;2024-03-23T08:45:03;4.16;2.70;
62631;PMS5003;48703;51.248;-0.546;2024-03-23T08:48:05;4.75;4.52;
62631;PMS5003;48703;51.248;-0.546;2024-03-23T08:51:07;4.44;3.51;
62631;PMS5003;48703;51.248;-0.546;2024-03-23T08:54:09;4.73;2.91;
62631;PMS5003;48703;51.248;-0.546;2024-03-23T08:57:10;3.06;3.01;
62631;PMS5003;48703;51.248;-0.546;2024-03-23T09:00:12;3.86;3.54;
62631;PMS5003;48703;51.248;-0.546;2024-03-23T09:03:13;5.60;4.06;
62631;PMS5003;48703;51.248;-0.546;2024-03-23T09:06:15;3.76;2.99;
62631;PMS5003;48703;51.248;-0.546;2024-03-23T09:09:17;3.94;3.13;
62631;PMS5003;48703;51.248;-0.546;2024-03-23T09:12:18;4.01;2.81;
62631;PMS5003;48703;51.248;-0.546;2024-03-23T09:15:20;4.11;2.47;
62631;PMS5003;48703;51.248;-0.546;2024-03-23T09:18:22;3.01;2.49;
62631;PMS5003;48703;51.248;-0.546;2024-03-23T09:21:23;3.27;2.49;
62631;PMS5003;48703;51.248;-0.546;2024-03-23T09:24:25;2.90;2.51;
62631;PMS5003;48703;51.248;-0.546;2024-03-23T09:27:27;3.39;2.66;
62631;PMS5003;48703;51.248;-0.546;2024-03-23T09:30:29;3.00;2.10;
62631;PMS5003;48703;51.248;-0.546;2024-03-23T09:33:31;2.51;2.04;
62631;PMS5003;48703;51.248;-0.546;2024-03-23T09:36:32;3.66;1.76;
62631;PMS5003;48703;51.248;-0.546;2024-03-23T09:39:34;2.69;2.09;
62631;PMS5003;48703;51.248;-0.546;2024-03-23T09:42:35;2.33;1.90;
62631;PMS5003;48703;51.248;-0.546;2024-03-23T09:45:38;2.03;1.51;
62631;PMS5003;48703;51.248;-0.546;2024-03-23T09:48:39;2.46;2.46;
62631;PMS5003;48703;51.248;-0.546;2024-03-23T09:51:41;2.80;1.80;
62631;PMS5003;48703;51.248;-0.546;2024-03-23T09:54:42;4.07;2.81;
62631;PMS5003;48703;51.248;-0.546;2024-03-23T09:57:44;3.21;2.47;
62631;PMS5003;48703;51.248;-0.546;2024-03-23T10:00:46;2.44;2.44;
62631;PMS5003;48703;51.248;-0.546;2024-03-23T10:03:47;2.56;2.56;
62631;PMS5003;48703;51.248;-0.546;2024-03-23T10:06:49;3.07;2.74;
62631;PMS5003;48703;51.248;-0.546;2024-03-23T10:09:51;4.31;3.56;
62631;PMS5003;48703;51.248;-0.546;2024-03-23T10:12:53;4.70;3.39;
62631;PMS5003;48703;51.248;-0.546;2024-03-23T10:15:55;4.51;4.10;
62631;PMS5003;48703;51.248;-0.546;2024-03-23T10:18:56;3.91;2.77;
62631;PMS5003;48703;51.248;-0.546;2024-03-23T10:21:58;2.26;1.74;
62631;PMS5003;48703;51.248;-0.546;2024-03-23T10:25:06;3.16;2.86;
62631;PMS5003;48703;51.248;-0.546;2024-03-23T10:28:01;3.20;2.03;
62631;PMS5003;48703;51.248;-0.546;2024-03-23T10:31:06;2.74;2.29;
62631;PMS5003;48703;51.248;-0.546;2024-03-23T10:34:05;2.17;1.69;
62631;PMS5003;48703;51.248;-0.546;2024-03-23T10:37:07;2.94;1.63;
62631;PMS5003;48703;51.248;-0.546;2024-03-23T10:40:09;1.37;1.37;
62631;PMS5003;48703;51.248;-0.546;2024-03-23T10:43:10;2.57;2.14;
62631;PMS5003;48703;51.248;-0.546;2024-03-23T10:46:12;2.06;2.06;
62631;PMS5003;48703;51.248;-0.546;2024-03-23T10:49:13;1.26;1.26;
62631;PMS5003;48703;51.248;-0.546;2024-03-23T10:52:15;2.99;2.55;
62631;PMS5003;48703;51.248;-0.546;2024-03-23T10:55:17;2.91;1.87;
62631;PMS5003;48703;51.248;-0.546;2024-03-23T10:58:18;2.86;1.83;
62631;PMS5003;48703;51.248;-0.546;2024-03-23T11:01:20;2.66;1.29;
62631;PMS5003;48703;51.248;-0.546;2024-03-23T11:04:29;1.60;1.46;
62631;PMS5003;48703;51.248;-0.546;2024-03-23T11:07:28;2.59;1.44;
62631;PMS5003;48703;51.248;-0.546;2024-03-23T11:10:25;1.56;1.47;
62631;PMS5003;48703;51.248;-0.546;2024-03-23T11:13:27;2.01;1.67;
62631;PMS5003;48703;51.248;-0.546;2024-03-23T11:16:28;2.30;2.30;
62631;PMS5003;48703;51.248;-0.546;2024-03-23T11:19:34;2.74;2.53;
62631;PMS5003;48703;51.248;-0.546;2024-03-23T11:22:40;2.60;2.30;
62631;PMS5003;48703;51.248;-0.546;2024-03-23T11:25:33;2.87;1.89;
62631;PMS5003;48703;51.248;-0.546;2024-03-23T11:28:35;2.11;0.81;
62631;PMS5003;48703;51.248;-0.546;2024-03-23T11:31:37;3.13;2.69;
62631;PMS5003;48703;51.248;-0.546;2024-03-23T11:34:39;1.24;1.24;
62631;PMS5003;48703;51.248;-0.546;2024-03-23T11:37:40;2.24;1.94;
62631;PMS5003;48703;51.248;-0.546;2024-03-23T11:40:42;1.60;1.30;
62631;PMS5003;48703;51.248;-0.546;2024-03-23T11:43:43;1.89;1.03;
62631;PMS5003;48703;51.248;-0.546;2024-03-23T11:46:45;2.77;2.51;
62631;PMS5003;48703;51.248;-0.546;2024-03-23T11:49:48;2.39;1.57;
62631;PMS5003;48703;51.248;-0.546;2024-03-23T11:52:48;2.10;1.51;
62631;PMS5003;48703;51.248;-0.546;2024-03-23T11:55:50;3.83;3.44;
62631;PMS5003;48703;51.248;-0.546;2024-03-23T11:58:52;2.24;1.56;
62631;PMS5003;48703;51.248;-0.546;2024-03-23T12:01:53;2.54;1.99;
62631;PMS5003;48703;51.248;-0.546;2024-03-23T12:04:55;1.66;1.11;
62631;PMS5003;48703;51.248;-0.546;2024-03-23T12:08:15;2.47;1.31;
62631;PMS5003;48703;51.248;-0.546;2024-03-23T12:11:06;1.64;1.31;
62631;PMS5003;48703;51.248;-0.546;2024-03-23T12:14:00;1.00;0.93;
62631;PMS5003;48703;51.248;-0.546;2024-03-23T12:17:09;2.21;1.86;
62631;PMS5003;48703;51.248;-0.546;2024-03-23T12:20:04;1.91;1.37;
62631;PMS5003;48703;51.248;-0.546;2024-03-23T12:23:05;0.59;0.59;
62631;PMS5003;48703;51.248;-0.546;2024-03-23T12:26:06;0.50;0.50;
62631;PMS5003;48703;51.248;-0.546;2024-03-23T12:29:08;0.93;0.49;
62631;PMS5003;48703;51.248;-0.546;2024-03-23T12:32:10;1.64;0.54;
62631;PMS5003;48703;51.248;-0.546;2024-03-23T12:35:11;0.86;0.51;
62631;PMS5003;48703;51.248;-0.546;2024-03-23T12:38:13;0.51;0.51;
62631;PMS5003;48703;51.248;-0.546;2024-03-23T12:41:14;1.80;1.80;
62631;PMS5003;48703;51.248;-0.546;2024-03-23T12:44:16;2.09;2.09;
62631;PMS5003;48703;51.248;-0.546;2024-03-23T12:47:18;2.14;1.29;
62631;PMS5003;48703;51.248;-0.546;2024-03-23T12:50:19;1.90;1.17;
62631;PMS5003;48703;51.248;-0.546;2024-03-23T12:53:21;1.77;1.77;
62631;PMS5003;48703;51.248;-0.546;2024-03-23T12:56:23;1.77;1.50;
62631;PMS5003;48703;51.248;-0.546;2024-03-23T12:59:24;2.00;1.27;
62631;PMS5003;48703;51.248;-0.546;2024-03-23T13:02:26;0.79;0.44;
62631;PMS5003;48703;51.248;-0.546;2024-03-23T13:05:28;1.34;0.93;
62631;PMS5003;48703;51.248;-0.546;2024-03-23T13:08:29;2.07;1.30;
62631;PMS5003;48703;51.248;-0.546;2024-03-23T13:11:31;1.46;1.03;
62631;PMS5003;48703;51.248;-0.546;2024-03-23T13:14:33;2.13;0.84;
62631;PMS5003;48703;51.248;-0.546;2024-03-23T13:17:35;1.60;1.20;
62631;PMS5003;48703;51.248;-0.546;2024-03-23T13:20:36;2.03;0.94;
62631;PMS5003;48703;51.248;-0.546;2024-03-23T13:23:38;0.47;0.47;
62631;PMS5003;48703;51.248;-0.546;2024-03-23T13:26:40;0.10;0.10;
62631;PMS5003;48703;51.248;-0.546;2024-03-23T13:29:41;0.13;0.13;
62631;PMS5003;48703;51.248;-0.546;2024-03-23T13:32:43;1.41;1.41;
62631;PMS5003;48703;51.248;-0.546;2024-03-23T13:35:52;1.69;1.26;
62631;PMS5003;48703;51.248;-0.546;2024-03-23T13:38:46;2.93;1.86;
62631;PMS5003;48703;51.248;-0.546;2024-03-23T13:41:48;1.13;0.53;
62631;PMS5003;48703;51.248;-0.546;2024-03-23T13:44:50;0.37;0.37;
62631;PMS5003;48703;51.248;-0.546;2024-03-23T13:47:52;1.36;1.36;
62631;PMS5003;48703;51.248;-0.546;2024-03-23T13:50:58;2.60;2.11;
62631;PMS5003;48703;51.248;-0.546;2024-03-23T13:53:55;1.41;1.41;
62631;PMS5003;48703;51.248;-0.546;2024-03-23T13:56:57;2.33;1.33;
62631;PMS5003;48703;51.248;-0.546;2024-03-23T14:00:00;1.49;1.49;
62631;PMS5003;48703;51.248;-0.546;2024-03-23T14:03:00;1.37;1.03;
62631;PMS5003;48703;51.248;-0.546;2024-03-23T14:06:02;0.69;0.60;
62631;PMS5003;48703;51.248;-0.546;2024-03-23T14:09:04;1.26;1.26;
62631;PMS5003;48703;51.248;-0.546;2024-03-23T14:12:06;0.91;0.89;
62631;PMS5003;48703;51.248;-0.546;2024-03-23T14:15:13;1.11;0.94;
62631;PMS5003;48703;51.248;-0.546;2024-03-23T14:18:09;0.83;0.83;
62631;PMS5003;48703;51.248;-0.546;2024-03-23T14:21:11;0.60;0.51;
62631;PMS5003;48703;51.248;-0.546;2024-03-23T14:24:12;0.20;0.20;
62631;PMS5003;48703;51.248;-0.546;2024-03-23T14:27:14;0.71;0.71;
62631;PMS5003;48703;51.248;-0.546;2024-03-23T14:30:16;0.33;0.00;
62631;PMS5003;48703;51.248;-0.546;2024-03-23T14:33:18;0.17;0.17;
62631;PMS5003;48703;51.248;-0.546;2024-03-23T14:36:19;0.44;0.44;
62631;PMS5003;48703;51.248;-0.546;2024-03-23T14:39:22;0.51;0.51;
62631;PMS5003;48703;51.248;-0.546;2024-03-23T14:42:23;1.34;1.00;
62631;PMS5003;48703;51.248;-0.546;2024-03-23T14:45:25;0.77;0.76;
62631;PMS5003;48703;51.248;-0.546;2024-03-23T14:48:27;0.34;0.34;
62631;PMS5003;48703;51.248;-0.546;2024-03-23T14:51:28;0.83;0.83;
62631;PMS5003;48703;51.248;-0.546;2024-03-23T14:54:30;0.30;0.27;
62631;PMS5003;48703;51.248;-0.546;2024-03-23T14:57:32;0.70;0.70;
62631;PMS5003;48703;51.248;-0.546;2024-03-23T15:00:34;0.86;0.64;
62631;PMS5003;48703;51.248;-0.546;2024-03-23T15:03:35;0.66;0.66;
62631;PMS5003;48703;51.248;-0.546;2024-03-23T15:06:37;0.01;0.01;
62631;PMS5003;48703;51.248;-0.546;2024-03-23T15:09:39;0.70;0.26;
62631;PMS5003;48703;51.248;-0.546;2024-03-23T15:12:40;1.04;1.04;
62631;PMS5003;48703;51.248;-0.546;2024-03-23T15:15:42;0.16;0.00;
62631;PMS5003;48703;51.248;-0.546;2024-03-23T15:18:44;0.96;0.96;
62631;PMS5003;48703;51.248;-0.546;2024-03-23T15:21:46;0.00;0.00;
62631;PMS5003;48703;51.248;-0.546;2024-03-23T15:24:47;1.47;0.70;
62631;PMS5003;48703;51.248;-0.546;2024-03-23T15:27:50;1.96;0.54;
62631;PMS5003;48703;51.248;-0.546;2024-03-23T15:30:51;0.99;0.03;
62631;PMS5003;48703;51.248;-0.546;2024-03-23T15:33:53;0.84;0.41;
62631;PMS5003;48703;51.248;-0.546;2024-03-23T15:36:54;0.91;0.74;
62631;PMS5003;48703;51.248;-0.546;2024-03-23T15:39:56;0.89;0.89;
62631;PMS5003;48703;51.248;-0.546;2024-03-23T15:42:58;0.81;0.34;
62631;PMS5003;48703;51.248;-0.546;2024-03-23T15:46:00;0.43;0.43;
62631;PMS5003;48703;51.248;-0.546;2024-03-23T15:49:01;0.56;0.39;
62631;PMS5003;48703;51.248;-0.546;2024-03-23T15:52:03;0.09;0.09;
62631;PMS5003;48703;51.248;-0.546;2024-03-23T15:55:05;0.61;0.61;
62631;PMS5003;48703;51.248;-0.546;2024-03-23T15:58:06;1.24;0.81;
62631;PMS5003;48703;51.248;-0.546;2024-03-23T16:01:08;0.43;0.43;
62631;PMS5003;48703;51.248;-0.546;2024-03-23T16:04:09;0.47;0.47;
62631;PMS5003;48703;51.248;-0.546;2024-03-23T16:07:11;0.80;0.70;
62631;PMS5003;48703;51.248;-0.546;2024-03-23T16:10:13;0.89;0.43;
62631;PMS5003;48703;51.248;-0.546;2024-03-23T16:13:15;0.39;0.00;
62631;PMS5003;48703;51.248;-0.546;2024-03-23T16:16:16;0.50;0.36;
62631;PMS5003;48703;51.248;-0.546;2024-03-23T16:19:18;0.61;0.61;
62631;PMS5003;48703;51.248;-0.546;2024-03-23T16:22:20;0.36;0.36;
62631;PMS5003;48703;51.248;-0.546;2024-03-23T16:25:21;0.69;0.69;
62631;PMS5003;48703;51.248;-0.546;2024-03-23T16:28:23;1.29;0.86;
62631;PMS5003;48703;51.248;-0.546;2024-03-23T16:31:25;0.27;0.27;
62631;PMS5003;48703;51.248;-0.546;2024-03-23T16:34:26;0.59;0.59;
62631;PMS5003;48703;51.248;-0.546;2024-03-23T16:37:28;1.16;0.90;
62631;PMS5003;48703;51.248;-0.546;2024-03-23T16:40:30;0.87;0.87;
62631;PMS5003;48703;51.248;-0.546;2024-03-23T16:43:31;0.53;0.53;
62631;PMS5003;48703;51.248;-0.546;2024-03-23T16:46:33;0.59;0.59;
62631;PMS5003;48703;51.248;-0.546;2024-03-23T16:49:35;0.37;0.37;
62631;PMS5003;48703;51.248;-0.546;2024-03-23T16:52:36;1.10;0.71;
62631;PMS5003;48703;51.248;-0.546;2024-03-23T16:55:38;0.64;0.64;
62631;PMS5003;48703;51.248;-0.546;2024-03-23T16:58:40;0.60;0.60;
62631;PMS5003;48703;51.248;-0.546;2024-03-23T17:01:41;1.43;1.00;
62631;PMS5003;48703;51.248;-0.546;2024-03-23T17:04:43;3.54;1.70;
62631;PMS5003;48703;51.248;-0.546;2024-03-23T17:07:45;1.37;1.24;
62631;PMS5003;48703;51.248;-0.546;2024-03-23T17:10:47;0.49;0.47;
62631;PMS5003;48703;51.248;-0.546;2024-03-23T17:13:49;1.07;1.07;
62631;PMS5003;48703;51.248;-0.546;2024-03-23T17:16:51;1.26;1.26;
62631;PMS5003;48703;51.248;-0.546;2024-03-23T17:19:58;1.93;1.64;
62631;PMS5003;48703;51.248;-0.546;2024-03-23T17:22:54;0.90;0.90;
62631;PMS5003;48703;51.248;-0.546;2024-03-23T17:25:55;1.94;1.49;
62631;PMS5003;48703;51.248;-0.546;2024-03-23T17:28:57;1.07;1.07;
62631;PMS5003;48703;51.248;-0.546;2024-03-23T17:31:58;1.74;1.59;
62631;PMS5003;48703;51.248;-0.546;2024-03-23T17:35:00;2.57;1.84;
62631;PMS5003;48703;51.248;-0.546;2024-03-23T17:38:01;2.58;1.90;
62631;PMS5003;48703;51.248;-0.546;2024-03-23T17:41:03;1.99;1.39;
62631;PMS5003;48703;51.248;-0.546;2024-03-23T17:44:05;2.27;1.43;
62631;PMS5003;48703;51.248;-0.546;2024-03-23T17:47:07;1.90;1.36;
62631;PMS5003;48703;51.248;-0.546;2024-03-23T17:50:08;2.54;2.24;
62631;PMS5003;48703;51.248;-0.546;2024-03-23T17:53:10;2.09;1.91;
62631;PMS5003;48703;51.248;-0.546;2024-03-23T17:56:12;1.64;1.64;
62631;PMS5003;48703;51.248;-0.546;2024-03-23T17:59:14;1.64;1.51;
62631;PMS5003;48703;51.248;-0.546;2024-03-23T18:02:15;2.66;2.66;
62631;PMS5003;48703;51.248;-0.546;2024-03-23T18:05:17;1.21;1.21;
62631;PMS5003;48703;51.248;-0.546;2024-03-23T18:08:19;2.13;2.13;
62631;PMS5003;48703;51.248;-0.546;2024-03-23T18:11:20;1.94;1.83;
62631;PMS5003;48703;51.248;-0.546;2024-03-23T18:14:22;2.77;1.97;
62631;PMS5003;48703;51.248;-0.546;2024-03-23T18:17:24;2.47;2.07;
62631;PMS5003;48703;51.248;-0.546;2024-03-23T18:20:26;1.69;1.09;
62631;PMS5003;48703;51.248;-0.546;2024-03-23T18:23:27;1.96;1.81;
62631;PMS5003;48703;51.248;-0.546;2024-03-23T18:26:29;1.19;1.19;
62631;PMS5003;48703;51.248;-0.546;2024-03-23T18:29:30;2.12;1.75;
62631;PMS5003;48703;51.248;-0.546;2024-03-23T18:32:32;1.71;1.31;
62631;PMS5003;48703;51.248;-0.546;2024-03-23T18:35:34;2.11;1.73;
62631;PMS5003;48703;51.248;-0.546;2024-03-23T18:38:36;2.77;1.31;
62631;PMS5003;48703;51.248;-0.546;2024-03-23T18:41:37;2.99;2.89;
62631;PMS5003;48703;51.248;-0.546;2024-03-23T18:44:39;3.13;2.47;
62631;PMS5003;48703;51.248;-0.546;2024-03-23T18:47:41;5.89;3.86;
62631;PMS5003;48703;51.248;-0.546;2024-03-23T18:50:43;3.70;3.51;
62631;PMS5003;48703;51.248;-0.546;2024-03-23T18:53:45;4.81;4.17;
62631;PMS5003;48703;51.248;-0.546;2024-03-23T18:56:46;2.17;1.70;
62631;PMS5003;48703;51.248;-0.546;2024-03-23T18:59:48;2.83;2.44;
62631;PMS5003;48703;51.248;-0.546;2024-03-23T19:02:50;2.40;2.16;
62631;PMS5003;48703;51.248;-0.546;2024-03-23T19:05:52;2.29;1.99;
62631;PMS5003;48703;51.248;-0.546;2024-03-23T19:08:53;3.53;2.24;
62631;PMS5003;48703;51.248;-0.546;2024-03-23T19:11:55;2.43;2.30;
62631;PMS5003;48703;51.248;-0.546;2024-03-23T19:14:57;2.60;2.47;
62631;PMS5003;48703;51.248;-0.546;2024-03-23T19:17:58;2.84;2.83;
62631;PMS5003;48703;51.248;-0.546;2024-03-23T19:21:00;3.67;2.63;
62631;PMS5003;48703;51.248;-0.546;2024-03-23T19:24:02;2.93;2.16;
62631;PMS5003;48703;51.248;-0.546;2024-03-23T19:27:04;2.77;2.47;